Santa Margherita — V7JA2 — position and weather

sailwx.info

Track history (hours):
 
Tides and Currents Weather Stations Pressure Air Temp Water Temp Dewpoint Dewpoint Depression Visibility Wind Speed Wind Dir Waves Ship Positions

Santa Margherita

Last reported at 2015-May-22 22:29 UTC. Time now 2015-May-23 04:16 UTC.
Position N 09°24' E 122°24'.

Length 190 m; draft 7.4 m.

MMSI: 538090191.

Date/timePositionNaut miles runAvg speedWind from/ knotsBaromVisibWave heightAir tempDewpointWater temp
2015-May-22 22:29N 09°24' E 122°24'1010.7
2015-May-22 21:32N 09°17' E 122°31'1110.8
2015-May-22 20:33N 09°10' E 122°39'2211.1
2015-May-22 18:34N 08°54' E 122°55'1110.5
2015-May-22 17:33N 08°49' E 123°04'1111.3
2015-May-22 16:33N 08°49' E 123°16'1110.6
2015-May-22 15:33N 08°49' E 123°26'1110.7
2015-May-22 14:33N 08°49' E 123°37'1111.1
2015-May-22 13:33N 08°49' E 123°48'1211.2
2015-May-22 12:32N 08°49' E 124°00'  
2015-May-18 17:21N 08°49' E 123°41'1010.0
2015-May-18 16:21N 08°49' E 123°31'10 9.3
2015-May-18 15:17N 08°49' E 123°21'7 9.3
2015-May-18 14:31N 08°49' E 123°14'9 9.1
2015-May-18 13:30N 08°49' E 123°05'  
Track history (hours):
 
Tides and Currents Weather Stations Pressure Air Temp Water Temp Dewpoint Dewpoint Depression Visibility Wind Speed Wind Dir Waves Ship Positions

Santa Margherita

Last reported at 2015-May-22 22:29 UTC. Time now 2015-May-23 04:16 UTC.
Position N 09°24' E 122°24'.

Length 190 m; draft 7.4 m.

MMSI: 538090191.

Date/timePositionNaut miles runAvg speedWind from/ knotsBaromVisibWave heightAir tempDewpointWater temp
2015-May-22 22:29N 09°24' E 122°24'1010.7
2015-May-22 21:32N 09°17' E 122°31'1110.8
2015-May-22 20:33N 09°10' E 122°39'2211.1
2015-May-22 18:34N 08°54' E 122°55'1110.5
2015-May-22 17:33N 08°49' E 123°04'1111.3
2015-May-22 16:33N 08°49' E 123°16'1110.6
2015-May-22 15:33N 08°49' E 123°26'1110.7
2015-May-22 14:33N 08°49' E 123°37'1111.1
2015-May-22 13:33N 08°49' E 123°48'1211.2
2015-May-22 12:32N 08°49' E 124°00'  
2015-May-18 17:21N 08°49' E 123°41'1010.0
2015-May-18 16:21N 08°49' E 123°31'10 9.3
2015-May-18 15:17N 08°49' E 123°21'7 9.3
2015-May-18 14:31N 08°49' E 123°14'9 9.1
2015-May-18 13:30N 08°49' E 123°05'  

Dump ship's entire track history